sensor_id;sensor_type;location;lat;lon;timestamp;P1;durP1;ratioP1;P2;durP2;ratioP2
52642;SDS011;38531;53.296;6.614;2022-08-05T00:00:47;1.60;;;0.40;;
52642;SDS011;38531;53.296;6.614;2022-08-05T00:03:13;1.05;;;0.50;;
52642;SDS011;38531;53.296;6.614;2022-08-05T00:05:39;1.83;;;0.50;;
52642;SDS011;38531;53.296;6.614;2022-08-05T00:08:07;1.52;;;0.50;;
52642;SDS011;38531;53.296;6.614;2022-08-05T00:10:33;1.40;;;0.40;;
52642;SDS011;38531;53.296;6.614;2022-08-05T00:12:59;2.22;;;0.68;;
52642;SDS011;38531;53.296;6.614;2022-08-05T00:15:25;0.57;;;0.40;;
52642;SDS011;38531;53.296;6.614;2022-08-05T00:17:51;0.40;;;0.40;;
52642;SDS011;38531;53.296;6.614;2022-08-05T00:20:16;1.75;;;0.50;;
52642;SDS011;38531;53.296;6.614;2022-08-05T00:22:42;1.73;;;0.50;;
52642;SDS011;38531;53.296;6.614;2022-08-05T00:25:08;0.73;;;0.43;;
52642;SDS011;38531;53.296;6.614;2022-08-05T00:27:33;1.75;;;0.63;;
52642;SDS011;38531;53.296;6.614;2022-08-05T00:29:59;1.90;;;0.40;;
52642;SDS011;38531;53.296;6.614;2022-08-05T00:32:25;1.60;;;0.50;;
52642;SDS011;38531;53.296;6.614;2022-08-05T00:34:51;0.93;;;0.60;;
52642;SDS011;38531;53.296;6.614;2022-08-05T00:37:17;2.03;;;0.60;;
52642;SDS011;38531;53.296;6.614;2022-08-05T00:39:42;1.20;;;0.43;;
52642;SDS011;38531;53.296;6.614;2022-08-05T00:42:08;0.90;;;0.50;;
52642;SDS011;38531;53.296;6.614;2022-08-05T00:44:34;2.17;;;0.50;;
52642;SDS011;38531;53.296;6.614;2022-08-05T00:47:00;0.88;;;0.55;;
52642;SDS011;38531;53.296;6.614;2022-08-05T00:49:25;2.00;;;0.40;;
52642;SDS011;38531;53.296;6.614;2022-08-05T00:51:51;2.67;;;0.43;;
52642;SDS011;38531;53.296;6.614;2022-08-05T00:54:17;1.05;;;0.40;;
52642;SDS011;38531;53.296;6.614;2022-08-05T00:56:42;1.17;;;0.43;;
52642;SDS011;38531;53.296;6.614;2022-08-05T00:59:08;0.90;;;0.40;;
52642;SDS011;38531;53.296;6.614;2022-08-05T01:01:34;1.38;;;0.30;;
52642;SDS011;38531;53.296;6.614;2022-08-05T01:04:00;1.48;;;0.40;;
52642;SDS011;38531;53.296;6.614;2022-08-05T01:06:26;2.97;;;0.60;;
52642;SDS011;38531;53.296;6.614;2022-08-05T01:08:52;2.38;;;0.50;;
52642;SDS011;38531;53.296;6.614;2022-08-05T01:11:21;1.55;;;0.35;;
52642;SDS011;38531;53.296;6.614;2022-08-05T01:16:44;1.45;;;0.40;;
52642;SDS011;38531;53.296;6.614;2022-08-05T01:19:18;0.70;;;0.40;;
52642;SDS011;38531;53.296;6.614;2022-08-05T01:25:10;0.73;;;0.40;;
52642;SDS011;38531;53.296;6.614;2022-08-05T01:28:17;1.33;;;0.50;;
52642;SDS011;38531;53.296;6.614;2022-08-05T01:30:52;1.45;;;0.40;;
52642;SDS011;38531;53.296;6.614;2022-08-05T01:33:49;0.40;;;0.40;;
52642;SDS011;38531;53.296;6.614;2022-08-05T01:36:21;0.95;;;0.60;;
52642;SDS011;38531;53.296;6.614;2022-08-05T01:38:53;0.30;;;0.30;;
52642;SDS011;38531;53.296;6.614;2022-08-05T01:41:20;0.82;;;0.40;;
52642;SDS011;38531;53.296;6.614;2022-08-05T01:43:48;0.70;;;0.30;;
52642;SDS011;38531;53.296;6.614;2022-08-05T01:46:16;1.42;;;0.40;;
52642;SDS011;38531;53.296;6.614;2022-08-05T01:48:44;0.60;;;0.30;;
52642;SDS011;38531;53.296;6.614;2022-08-05T01:51:11;1.33;;;0.50;;
52642;SDS011;38531;53.296;6.614;2022-08-05T01:53:41;1.25;;;0.40;;
52642;SDS011;38531;53.296;6.614;2022-08-05T01:56:08;0.85;;;0.50;;
52642;SDS011;38531;53.296;6.614;2022-08-05T01:58:36;0.60;;;0.30;;
52642;SDS011;38531;53.296;6.614;2022-08-05T02:01:03;0.90;;;0.57;;
52642;SDS011;38531;53.296;6.614;2022-08-05T02:03:35;2.78;;;0.40;;
52642;SDS011;38531;53.296;6.614;2022-08-05T02:06:04;2.00;;;0.60;;
52642;SDS011;38531;53.296;6.614;2022-08-05T02:08:31;0.82;;;0.40;;
52642;SDS011;38531;53.296;6.614;2022-08-05T02:10:58;1.42;;;0.50;;
52642;SDS011;38531;53.296;6.614;2022-08-05T02:13:32;1.40;;;0.55;;
52642;SDS011;38531;53.296;6.614;2022-08-05T02:16:04;1.20;;;0.43;;
52642;SDS011;38531;53.296;6.614;2022-08-05T02:18:49;3.47;;;0.63;;
52642;SDS011;38531;53.296;6.614;2022-08-05T02:21:42;1.15;;;0.50;;
52642;SDS011;38531;53.296;6.614;2022-08-05T02:24:39;0.77;;;0.40;;
52642;SDS011;38531;53.296;6.614;2022-08-05T02:27:09;1.05;;;0.52;;
52642;SDS011;38531;53.296;6.614;2022-08-05T02:29:35;0.47;;;0.38;;
52642;SDS011;38531;53.296;6.614;2022-08-05T02:32:02;0.88;;;0.60;;
52642;SDS011;38531;53.296;6.614;2022-08-05T02:34:32;0.40;;;0.40;;
52642;SDS011;38531;53.296;6.614;2022-08-05T02:37:02;0.98;;;0.50;;
52642;SDS011;38531;53.296;6.614;2022-08-05T02:39:30;1.05;;;0.40;;
52642;SDS011;38531;53.296;6.614;2022-08-05T02:41:59;1.38;;;0.47;;
52642;SDS011;38531;53.296;6.614;2022-08-05T02:44:27;0.73;;;0.50;;
52642;SDS011;38531;53.296;6.614;2022-08-05T02:46:55;0.55;;;0.40;;
52642;SDS011;38531;53.296;6.614;2022-08-05T02:49:21;1.13;;;0.50;;
52642;SDS011;38531;53.296;6.614;2022-08-05T02:51:48;0.77;;;0.50;;
52642;SDS011;38531;53.296;6.614;2022-08-05T02:54:15;0.70;;;0.43;;
52642;SDS011;38531;53.296;6.614;2022-08-05T02:56:42;0.35;;;0.30;;
52642;SDS011;38531;53.296;6.614;2022-08-05T02:59:09;2.15;;;0.50;;
52642;SDS011;38531;53.296;6.614;2022-08-05T03:01:36;0.80;;;0.40;;
52642;SDS011;38531;53.296;6.614;2022-08-05T03:04:07;0.95;;;0.40;;
52642;SDS011;38531;53.296;6.614;2022-08-05T03:06:35;2.00;;;0.50;;
52642;SDS011;38531;53.296;6.614;2022-08-05T03:09:02;0.57;;;0.40;;
52642;SDS011;38531;53.296;6.614;2022-08-05T03:11:28;0.98;;;0.57;;
52642;SDS011;38531;53.296;6.614;2022-08-05T03:13:54;1.48;;;0.50;;
52642;SDS011;38531;53.296;6.614;2022-08-05T03:16:20;0.73;;;0.43;;
52642;SDS011;38531;53.296;6.614;2022-08-05T03:18:46;1.05;;;0.43;;
52642;SDS011;38531;53.296;6.614;2022-08-05T03:21:12;0.98;;;0.50;;
52642;SDS011;38531;53.296;6.614;2022-08-05T03:23:39;1.90;;;0.50;;
52642;SDS011;38531;53.296;6.614;2022-08-05T03:26:06;3.13;;;0.55;;
52642;SDS011;38531;53.296;6.614;2022-08-05T03:28:33;0.40;;;0.40;;
52642;SDS011;38531;53.296;6.614;2022-08-05T03:30:59;1.52;;;0.50;;
52642;SDS011;38531;53.296;6.614;2022-08-05T03:33:26;2.45;;;0.50;;
52642;SDS011;38531;53.296;6.614;2022-08-05T03:35:54;1.05;;;0.47;;
52642;SDS011;38531;53.296;6.614;2022-08-05T03:38:24;0.40;;;0.40;;
52642;SDS011;38531;53.296;6.614;2022-08-05T03:40:50;0.50;;;0.40;;
52642;SDS011;38531;53.296;6.614;2022-08-05T03:43:19;1.08;;;0.50;;
52642;SDS011;38531;53.296;6.614;2022-08-05T03:45:45;1.67;;;0.38;;
52642;SDS011;38531;53.296;6.614;2022-08-05T03:48:11;2.03;;;0.43;;
52642;SDS011;38531;53.296;6.614;2022-08-05T03:51:00;0.77;;;0.50;;
52642;SDS011;38531;53.296;6.614;2022-08-05T03:53:53;2.03;;;1.25;;
52642;SDS011;38531;53.296;6.614;2022-08-05T03:56:31;0.50;;;0.50;;
52642;SDS011;38531;53.296;6.614;2022-08-05T03:59:12;0.50;;;0.30;;
52642;SDS011;38531;53.296;6.614;2022-08-05T04:01:45;0.70;;;0.40;;
52642;SDS011;38531;53.296;6.614;2022-08-05T04:04:13;0.63;;;0.40;;
52642;SDS011;38531;53.296;6.614;2022-08-05T04:06:40;0.80;;;0.45;;
52642;SDS011;38531;53.296;6.614;2022-08-05T04:09:06;0.63;;;0.32;;
52642;SDS011;38531;53.296;6.614;2022-08-05T04:11:33;0.50;;;0.50;;
52642;SDS011;38531;53.296;6.614;2022-08-05T04:14:00;1.70;;;0.52;;
52642;SDS011;38531;53.296;6.614;2022-08-05T04:16:26;0.70;;;0.50;;
52642;SDS011;38531;53.296;6.614;2022-08-05T04:18:53;1.08;;;0.50;;
52642;SDS011;38531;53.296;6.614;2022-08-05T04:21:19;0.95;;;0.50;;
52642;SDS011;38531;53.296;6.614;2022-08-05T04:23:44;1.65;;;0.50;;
52642;SDS011;38531;53.296;6.614;2022-08-05T04:26:11;1.30;;;0.60;;
52642;SDS011;38531;53.296;6.614;2022-08-05T04:28:38;1.30;;;0.50;;
52642;SDS011;38531;53.296;6.614;2022-08-05T04:31:04;0.85;;;0.52;;
52642;SDS011;38531;53.296;6.614;2022-08-05T04:33:30;0.80;;;0.40;;
52642;SDS011;38531;53.296;6.614;2022-08-05T04:35:55;1.45;;;0.50;;
52642;SDS011;38531;53.296;6.614;2022-08-05T04:38:21;0.70;;;0.50;;
52642;SDS011;38531;53.296;6.614;2022-08-05T04:40:47;0.57;;;0.40;;
52642;SDS011;38531;53.296;6.614;2022-08-05T04:43:13;0.80;;;0.55;;
52642;SDS011;38531;53.296;6.614;2022-08-05T04:45:38;1.50;;;0.40;;
52642;SDS011;38531;53.296;6.614;2022-08-05T04:48:08;1.25;;;0.40;;
52642;SDS011;38531;53.296;6.614;2022-08-05T04:50:37;0.80;;;0.50;;
52642;SDS011;38531;53.296;6.614;2022-08-05T04:53:04;0.80;;;0.50;;
52642;SDS011;38531;53.296;6.614;2022-08-05T04:55:30;1.52;;;0.50;;
52642;SDS011;38531;53.296;6.614;2022-08-05T04:57:55;1.15;;;0.50;;
52642;SDS011;38531;53.296;6.614;2022-08-05T05:00:21;0.30;;;0.30;;
52642;SDS011;38531;53.296;6.614;2022-08-05T05:02:47;2.15;;;0.50;;
52642;SDS011;38531;53.296;6.614;2022-08-05T05:05:12;0.40;;;0.40;;
52642;SDS011;38531;53.296;6.614;2022-08-05T05:07:38;1.10;;;0.50;;
52642;SDS011;38531;53.296;6.614;2022-08-05T05:10:04;0.85;;;0.50;;
52642;SDS011;38531;53.296;6.614;2022-08-05T05:12:30;1.75;;;0.40;;
52642;SDS011;38531;53.296;6.614;2022-08-05T05:14:56;0.82;;;0.82;;
52642;SDS011;38531;53.296;6.614;2022-08-05T05:17:22;1.33;;;0.40;;
52642;SDS011;38531;53.296;6.614;2022-08-05T05:19:48;1.20;;;0.60;;
52642;SDS011;38531;53.296;6.614;2022-08-05T05:22:14;2.05;;;0.63;;
52642;SDS011;38531;53.296;6.614;2022-08-05T05:24:39;1.33;;;0.50;;
52642;SDS011;38531;53.296;6.614;2022-08-05T05:27:05;1.33;;;0.50;;
52642;SDS011;38531;53.296;6.614;2022-08-05T05:29:31;0.70;;;0.57;;
52642;SDS011;38531;53.296;6.614;2022-08-05T05:31:56;2.25;;;0.50;;
52642;SDS011;38531;53.296;6.614;2022-08-05T05:34:22;1.95;;;0.60;;
52642;SDS011;38531;53.296;6.614;2022-08-05T05:36:48;2.05;;;0.40;;
52642;SDS011;38531;53.296;6.614;2022-08-05T05:39:13;0.35;;;0.35;;
52642;SDS011;38531;53.296;6.614;2022-08-05T05:41:39;1.00;;;0.60;;
52642;SDS011;38531;53.296;6.614;2022-08-05T05:44:05;1.48;;;0.60;;
52642;SDS011;38531;53.296;6.614;2022-08-05T05:46:31;1.33;;;0.50;;
52642;SDS011;38531;53.296;6.614;2022-08-05T05:48:56;0.70;;;0.52;;
52642;SDS011;38531;53.296;6.614;2022-08-05T05:51:22;0.85;;;0.55;;
52642;SDS011;38531;53.296;6.614;2022-08-05T05:53:50;0.95;;;0.40;;
52642;SDS011;38531;53.296;6.614;2022-08-05T05:56:16;0.82;;;0.50;;
52642;SDS011;38531;53.296;6.614;2022-08-05T05:58:45;0.45;;;0.45;;
52642;SDS011;38531;53.296;6.614;2022-08-05T06:01:12;1.75;;;0.52;;
52642;SDS011;38531;53.296;6.614;2022-08-05T06:03:41;1.00;;;0.55;;
52642;SDS011;38531;53.296;6.614;2022-08-05T06:06:07;0.63;;;0.40;;
52642;SDS011;38531;53.296;6.614;2022-08-05T06:08:33;0.65;;;0.50;;
52642;SDS011;38531;53.296;6.614;2022-08-05T06:10:59;0.65;;;0.50;;
52642;SDS011;38531;53.296;6.614;2022-08-05T06:13:25;1.23;;;0.47;;
52642;SDS011;38531;53.296;6.614;2022-08-05T06:15:51;1.00;;;0.60;;
52642;SDS011;38531;53.296;6.614;2022-08-05T06:18:17;1.25;;;0.60;;
52642;SDS011;38531;53.296;6.614;2022-08-05T06:20:42;1.15;;;0.60;;
52642;SDS011;38531;53.296;6.614;2022-08-05T06:23:08;3.45;;;0.88;;
52642;SDS011;38531;53.296;6.614;2022-08-05T06:25:34;1.77;;;0.60;;
52642;SDS011;38531;53.296;6.614;2022-08-05T06:28:00;0.63;;;0.40;;
52642;SDS011;38531;53.296;6.614;2022-08-05T06:30:28;2.70;;;0.80;;
52642;SDS011;38531;53.296;6.614;2022-08-05T06:32:54;0.82;;;0.50;;
52642;SDS011;38531;53.296;6.614;2022-08-05T06:35:20;0.98;;;0.55;;
52642;SDS011;38531;53.296;6.614;2022-08-05T06:37:46;1.58;;;0.63;;
52642;SDS011;38531;53.296;6.614;2022-08-05T06:40:11;1.50;;;0.50;;
52642;SDS011;38531;53.296;6.614;2022-08-05T06:42:37;0.85;;;0.47;;
52642;SDS011;38531;53.296;6.614;2022-08-05T06:45:03;2.58;;;0.50;;
52642;SDS011;38531;53.296;6.614;2022-08-05T06:47:30;0.88;;;0.40;;
52642;SDS011;38531;53.296;6.614;2022-08-05T06:49:55;0.90;;;0.38;;
52642;SDS011;38531;53.296;6.614;2022-08-05T06:52:22;0.98;;;0.52;;
52642;SDS011;38531;53.296;6.614;2022-08-05T06:54:47;2.17;;;0.30;;
52642;SDS011;38531;53.296;6.614;2022-08-05T06:57:13;0.82;;;0.40;;
52642;SDS011;38531;53.296;6.614;2022-08-05T06:59:40;3.42;;;0.38;;
52642;SDS011;38531;53.296;6.614;2022-08-05T07:02:07;1.25;;;0.20;;
52642;SDS011;38531;53.296;6.614;2022-08-05T07:04:33;1.65;;;0.30;;
52642;SDS011;38531;53.296;6.614;2022-08-05T07:06:59;0.40;;;0.22;;
52642;SDS011;38531;53.296;6.614;2022-08-05T07:09:25;0.30;;;0.30;;
52642;SDS011;38531;53.296;6.614;2022-08-05T07:11:50;0.20;;;0.20;;
52642;SDS011;38531;53.296;6.614;2022-08-05T07:24:24;2.25;;;0.20;;
52642;SDS011;38531;53.296;6.614;2022-08-05T07:30:57;0.85;;;0.30;;
52642;SDS011;38531;53.296;6.614;2022-08-05T07:34:09;1.55;;;0.22;;
52642;SDS011;38531;53.296;6.614;2022-08-05T07:41:38;2.15;;;0.20;;
52642;SDS011;38531;53.296;6.614;2022-08-05T07:50:34;2.25;;;0.30;;
52642;SDS011;38531;53.296;6.614;2022-08-05T07:53:00;1.27;;;0.20;;
52642;SDS011;38531;53.296;6.614;2022-08-05T07:55:26;1.08;;;0.55;;
52642;SDS011;38531;53.296;6.614;2022-08-05T07:57:52;1.15;;;0.15;;
52642;SDS011;38531;53.296;6.614;2022-08-05T08:00:18;0.20;;;0.10;;
52642;SDS011;38531;53.296;6.614;2022-08-05T08:02:43;0.75;;;0.20;;
52642;SDS011;38531;53.296;6.614;2022-08-05T08:05:12;0.38;;;0.17;;
52642;SDS011;38531;53.296;6.614;2022-08-05T08:07:39;1.75;;;0.20;;
52642;SDS011;38531;53.296;6.614;2022-08-05T08:10:20;0.40;;;0.10;;
52642;SDS011;38531;53.296;6.614;2022-08-05T08:12:47;1.35;;;0.10;;
52642;SDS011;38531;53.296;6.614;2022-08-05T08:18:26;0.43;;;0.15;;
52642;SDS011;38531;53.296;6.614;2022-08-05T08:20:55;0.43;;;0.20;;
52642;SDS011;38531;53.296;6.614;2022-08-05T08:23:21;1.10;;;0.20;;
52642;SDS011;38531;53.296;6.614;2022-08-05T08:25:46;2.45;;;0.17;;
52642;SDS011;38531;53.296;6.614;2022-08-05T08:28:12;1.15;;;0.25;;
52642;SDS011;38531;53.296;6.614;2022-08-05T08:30:38;0.50;;;0.20;;
52642;SDS011;38531;53.296;6.614;2022-08-05T08:33:08;1.17;;;0.30;;
52642;SDS011;38531;53.296;6.614;2022-08-05T08:35:35;1.80;;;0.20;;
52642;SDS011;38531;53.296;6.614;2022-08-05T08:38:09;1.35;;;0.25;;
52642;SDS011;38531;53.296;6.614;2022-08-05T08:40:37;0.32;;;0.20;;
52642;SDS011;38531;53.296;6.614;2022-08-05T08:43:03;1.23;;;0.10;;
52642;SDS011;38531;53.296;6.614;2022-08-05T08:45:29;0.10;;;0.10;;
52642;SDS011;38531;53.296;6.614;2022-08-05T08:47:57;1.45;;;0.20;;
52642;SDS011;38531;53.296;6.614;2022-08-05T08:50:26;0.93;;;0.35;;
52642;SDS011;38531;53.296;6.614;2022-08-05T08:52:55;1.85;;;0.20;;
52642;SDS011;38531;53.296;6.614;2022-08-05T08:55:28;0.17;;;0.10;;
52642;SDS011;38531;53.296;6.614;2022-08-05T08:58:10;1.10;;;0.22;;
52642;SDS011;38531;53.296;6.614;2022-08-05T09:04:16;1.05;;;0.20;;
52642;SDS011;38531;53.296;6.614;2022-08-05T09:06:51;0.15;;;0.13;;
52642;SDS011;38531;53.296;6.614;2022-08-05T09:09:17;1.67;;;0.10;;
52642;SDS011;38531;53.296;6.614;2022-08-05T09:11:45;0.60;;;0.10;;
52642;SDS011;38531;53.296;6.614;2022-08-05T09:14:19;0.45;;;0.10;;
52642;SDS011;38531;53.296;6.614;2022-08-05T09:17:28;0.80;;;0.10;;
52642;SDS011;38531;53.296;6.614;2022-08-05T09:27:55;0.85;;;0.10;;
52642;SDS011;38531;53.296;6.614;2022-08-05T09:42:53;0.32;;;0.00;;
52642;SDS011;38531;53.296;6.614;2022-08-05T09:45:57;0.60;;;0.10;;
52642;SDS011;38531;53.296;6.614;2022-08-05T09:51:29;0.32;;;0.10;;
52642;SDS011;38531;53.296;6.614;2022-08-05T10:00:00;0.47;;;0.10;;
52642;SDS011;38531;53.296;6.614;2022-08-05T10:42:25;0.00;;;0.00;;
52642;SDS011;38531;53.296;6.614;2022-08-05T10:44:53;0.15;;;0.00;;
52642;SDS011;38531;53.296;6.614;2022-08-05T10:47:24;0.10;;;0.00;;
52642;SDS011;38531;53.296;6.614;2022-08-05T10:50:03;0.13;;;0.05;;
52642;SDS011;38531;53.296;6.614;2022-08-05T10:52:51;0.52;;;0.00;;
52642;SDS011;38531;53.296;6.614;2022-08-05T10:55:33;0.10;;;0.00;;
52642;SDS011;38531;53.296;6.614;2022-08-05T10:58:05;0.05;;;0.00;;
52642;SDS011;38531;53.296;6.614;2022-08-05T11:00:33;0.20;;;0.05;;
52642;SDS011;38531;53.296;6.614;2022-08-05T11:05:31;0.20;;;0.10;;
52642;SDS011;38531;53.296;6.614;2022-08-05T11:07:58;0.08;;;0.00;;
52642;SDS011;38531;53.296;6.614;2022-08-05T11:10:29;0.38;;;0.00;;
52642;SDS011;38531;53.296;6.614;2022-08-05T11:12:55;0.00;;;0.00;;
52642;SDS011;38531;53.296;6.614;2022-08-05T11:15:30;1.25;;;0.00;;
52642;SDS011;38531;53.296;6.614;2022-08-05T11:25:36;0.10;;;0.00;;
52642;SDS011;38531;53.296;6.614;2022-08-05T11:31:21;0.20;;;0.10;;
52642;SDS011;38531;53.296;6.614;2022-08-05T11:40:01;0.10;;;0.00;;
52642;SDS011;38531;53.296;6.614;2022-08-05T11:42:53;1.75;;;0.10;;
52642;SDS011;38531;53.296;6.614;2022-08-05T11:53:02;0.65;;;0.10;;
52642;SDS011;38531;53.296;6.614;2022-08-05T11:58:33;0.40;;;0.32;;
52642;SDS011;38531;53.296;6.614;2022-08-05T12:01:25;0.65;;;0.08;;
52642;SDS011;38531;53.296;6.614;2022-08-05T12:03:56;0.73;;;0.10;;
52642;SDS011;38531;53.296;6.614;2022-08-05T12:06:27;1.73;;;0.10;;
52642;SDS011;38531;53.296;6.614;2022-08-05T12:09:34;0.73;;;0.10;;
52642;SDS011;38531;53.296;6.614;2022-08-05T12:12:05;0.20;;;0.03;;
52642;SDS011;38531;53.296;6.614;2022-08-05T12:14:59;0.82;;;0.00;;
52642;SDS011;38531;53.296;6.614;2022-08-05T12:17:53;0.22;;;0.00;;
52642;SDS011;38531;53.296;6.614;2022-08-05T12:20:27;1.70;;;0.10;;
52642;SDS011;38531;53.296;6.614;2022-08-05T13:44:20;1.38;;;0.10;;
52642;SDS011;38531;53.296;6.614;2022-08-05T13:46:46;1.52;;;0.22;;
52642;SDS011;38531;53.296;6.614;2022-08-05T13:49:17;1.55;;;0.20;;
52642;SDS011;38531;53.296;6.614;2022-08-05T13:51:49;2.83;;;0.10;;
52642;SDS011;38531;53.296;6.614;2022-08-05T13:54:17;0.30;;;0.10;;
52642;SDS011;38531;53.296;6.614;2022-08-05T16:42:01;2.83;;;0.17;;
52642;SDS011;38531;53.296;6.614;2022-08-05T19:56:32;0.10;;;0.10;;
52642;SDS011;38531;53.296;6.614;2022-08-05T20:02:04;0.15;;;0.10;;
52642;SDS011;38531;53.296;6.614;2022-08-05T20:08:17;0.45;;;0.20;;
52642;SDS011;38531;53.296;6.614;2022-08-05T20:11:32;0.20;;;0.20;;
52642;SDS011;38531;53.296;6.614;2022-08-05T20:17:20;0.63;;;0.10;;
52642;SDS011;38531;53.296;6.614;2022-08-05T20:19:58;0.28;;;0.20;;
52642;SDS011;38531;53.296;6.614;2022-08-05T20:22:25;1.20;;;0.20;;
52642;SDS011;38531;53.296;6.614;2022-08-05T20:24:54;0.60;;;0.20;;
52642;SDS011;38531;53.296;6.614;2022-08-05T20:27:23;0.95;;;0.20;;
52642;SDS011;38531;53.296;6.614;2022-08-05T20:29:52;0.30;;;0.20;;
52642;SDS011;38531;53.296;6.614;2022-08-05T20:32:19;0.22;;;0.10;;
52642;SDS011;38531;53.296;6.614;2022-08-05T20:34:44;0.10;;;0.10;;
52642;SDS011;38531;53.296;6.614;2022-08-05T20:37:14;0.60;;;0.20;;
52642;SDS011;38531;53.296;6.614;2022-08-05T20:39:43;0.13;;;0.13;;
52642;SDS011;38531;53.296;6.614;2022-08-05T20:42:09;0.10;;;0.10;;
52642;SDS011;38531;53.296;6.614;2022-08-05T20:44:35;0.80;;;0.10;;
52642;SDS011;38531;53.296;6.614;2022-08-05T20:47:01;0.20;;;0.10;;
52642;SDS011;38531;53.296;6.614;2022-08-05T20:49:31;0.10;;;0.10;;
52642;SDS011;38531;53.296;6.614;2022-08-05T20:51:57;0.45;;;0.20;;
52642;SDS011;38531;53.296;6.614;2022-08-05T20:54:24;0.10;;;0.10;;
52642;SDS011;38531;53.296;6.614;2022-08-05T20:56:53;0.65;;;0.20;;
52642;SDS011;38531;53.296;6.614;2022-08-05T20:59:20;0.30;;;0.20;;
52642;SDS011;38531;53.296;6.614;2022-08-05T21:01:46;2.53;;;0.25;;
52642;SDS011;38531;53.296;6.614;2022-08-05T21:04:12;0.55;;;0.25;;
52642;SDS011;38531;53.296;6.614;2022-08-05T21:06:38;0.50;;;0.40;;
52642;SDS011;38531;53.296;6.614;2022-08-05T21:09:04;1.58;;;0.40;;
52642;SDS011;38531;53.296;6.614;2022-08-05T21:11:32;0.35;;;0.30;;
52642;SDS011;38531;53.296;6.614;2022-08-05T21:13:57;0.98;;;0.30;;
52642;SDS011;38531;53.296;6.614;2022-08-05T21:16:26;1.60;;;0.40;;
52642;SDS011;38531;53.296;6.614;2022-08-05T21:19:01;0.73;;;0.43;;
52642;SDS011;38531;53.296;6.614;2022-08-05T21:21:30;1.15;;;0.30;;
52642;SDS011;38531;53.296;6.614;2022-08-05T21:24:13;0.40;;;0.30;;
52642;SDS011;38531;53.296;6.614;2022-08-05T21:27:00;1.35;;;0.30;;
52642;SDS011;38531;53.296;6.614;2022-08-05T21:29:26;0.28;;;0.20;;
52642;SDS011;38531;53.296;6.614;2022-08-05T21:31:58;0.68;;;0.20;;
52642;SDS011;38531;53.296;6.614;2022-08-05T21:34:30;0.60;;;0.20;;
52642;SDS011;38531;53.296;6.614;2022-08-05T21:36:56;1.05;;;0.28;;
52642;SDS011;38531;53.296;6.614;2022-08-05T21:39:24;0.68;;;0.60;;
52642;SDS011;38531;53.296;6.614;2022-08-05T21:41:55;0.98;;;0.30;;
52642;SDS011;38531;53.296;6.614;2022-08-05T21:44:32;1.05;;;0.40;;
52642;SDS011;38531;53.296;6.614;2022-08-05T21:47:14;1.02;;;0.45;;
52642;SDS011;38531;53.296;6.614;2022-08-05T21:53:12;1.55;;;0.70;;
52642;SDS011;38531;53.296;6.614;2022-08-05T21:56:42;1.42;;;0.50;;
52642;SDS011;38531;53.296;6.614;2022-08-05T22:05:11;1.15;;;0.70;;
52642;SDS011;38531;53.296;6.614;2022-08-05T22:12:17;3.42;;;0.60;;
52642;SDS011;38531;53.296;6.614;2022-08-05T22:15:30;0.75;;;0.57;;
52642;SDS011;38531;53.296;6.614;2022-08-05T22:31:55;1.17;;;0.43;;
52642;SDS011;38531;53.296;6.614;2022-08-05T22:35:20;2.78;;;0.50;;
52642;SDS011;38531;53.296;6.614;2022-08-05T22:38:32;1.02;;;0.63;;
52642;SDS011;38531;53.296;6.614;2022-08-05T22:41:33;0.90;;;0.60;;
52642;SDS011;38531;53.296;6.614;2022-08-05T22:44:03;1.08;;;0.43;;
52642;SDS011;38531;53.296;6.614;2022-08-05T22:46:45;0.50;;;0.50;;
52642;SDS011;38531;53.296;6.614;2022-08-05T22:49:46;3.10;;;0.45;;
52642;SDS011;38531;53.296;6.614;2022-08-05T22:52:23;1.02;;;0.30;;
52642;SDS011;38531;53.296;6.614;2022-08-05T22:55:18;0.40;;;0.40;;
52642;SDS011;38531;53.296;6.614;2022-08-05T22:57:56;0.63;;;0.40;;
52642;SDS011;38531;53.296;6.614;2022-08-05T23:00:44;1.23;;;0.50;;
52642;SDS011;38531;53.296;6.614;2022-08-05T23:03:23;0.50;;;0.50;;
52642;SDS011;38531;53.296;6.614;2022-08-05T23:06:00;0.65;;;0.43;;
52642;SDS011;38531;53.296;6.614;2022-08-05T23:08:33;1.85;;;0.60;;
52642;SDS011;38531;53.296;6.614;2022-08-05T23:11:10;1.00;;;0.50;;
52642;SDS011;38531;53.296;6.614;2022-08-05T23:13:42;0.98;;;0.50;;
52642;SDS011;38531;53.296;6.614;2022-08-05T23:16:14;4.30;;;0.50;;
52642;SDS011;38531;53.296;6.614;2022-08-05T23:19:05;3.33;;;0.50;;
52642;SDS011;38531;53.296;6.614;2022-08-05T23:25:00;3.10;;;0.50;;
52642;SDS011;38531;53.296;6.614;2022-08-05T23:27:29;0.30;;;0.30;;
52642;SDS011;38531;53.296;6.614;2022-08-05T23:29:58;0.75;;;0.30;;
52642;SDS011;38531;53.296;6.614;2022-08-05T23:32:31;2.67;;;0.45;;
52642;SDS011;38531;53.296;6.614;2022-08-05T23:35:02;0.43;;;0.30;;
52642;SDS011;38531;53.296;6.614;2022-08-05T23:37:36;1.10;;;0.30;;
52642;SDS011;38531;53.296;6.614;2022-08-05T23:40:02;0.82;;;0.30;;
52642;SDS011;38531;53.296;6.614;2022-08-05T23:42:28;0.30;;;0.22;;
52642;SDS011;38531;53.296;6.614;2022-08-05T23:44:54;1.85;;;0.30;;
52642;SDS011;38531;53.296;6.614;2022-08-05T23:47:20;1.02;;;0.40;;
52642;SDS011;38531;53.296;6.614;2022-08-05T23:49:46;0.50;;;0.30;;
52642;SDS011;38531;53.296;6.614;2022-08-05T23:52:15;0.75;;;0.40;;
52642;SDS011;38531;53.296;6.614;2022-08-05T23:54:56;0.90;;;0.40;;
52642;SDS011;38531;53.296;6.614;2022-08-05T23:57:33;1.30;;;0.32;;
